THY525 LTFJ-LHBP
Flight info
| Callsign | THY525 |
|---|---|
| Flight time | N/A |
| Altitude | 38000 |
| Route | IBLAX P727 BGS L622 GONGO DCT KOMAN DCT VASIS DCT DEGET DCT KEZAL |
| Aircraft | A20N/M-SDE2E3FGHIRWXY/LB1 |
Departure
| Time | 2026-04-27 06:31 |
|---|---|
| Airport | Istanbul Sabiha Gökçen International Airport (LTFJ) |
Arrival
| Time | N/A |
|---|---|
| Airport | Budapest Liszt Ferenc International Airport (LHBP) |
| Time | Latitude | Longitude | Altitude | Speed | Heading |
|---|---|---|---|---|---|
| 2026-04-27 06:04 | 40.90417 | 29.31588 | 311 ft | 0 kts | 154° |
| 2026-04-27 06:17 | 40.90425 | 29.31583 | 310 ft | 1 kts | 154° |
| 2026-04-27 06:17 | 40.90433 | 29.31578 | 308 ft | 1 kts | 154° |
| 2026-04-27 06:17 | 40.90440 | 29.31573 | 309 ft | 1 kts | 154° |
| 2026-04-27 06:17 | 40.90449 | 29.31567 | 309 ft | 2 kts | 154° |
| 2026-04-27 06:18 | 40.90460 | 29.31561 | 310 ft | 2 kts | 154° |
| 2026-04-27 06:18 | 40.90470 | 29.31555 | 310 ft | 2 kts | 162° |
| 2026-04-27 06:18 | 40.90481 | 29.31551 | 310 ft | 2 kts | 180° |
| 2026-04-27 06:18 | 40.90492 | 29.31553 | 310 ft | 2 kts | 201° |
| 2026-04-27 06:19 | 40.90500 | 29.31558 | 311 ft | 1 kts | 230° |
| 2026-04-27 06:19 | 40.90500 | 29.31559 | 310 ft | 0 kts | 232° |
| 2026-04-27 06:19 | 40.90498 | 29.31555 | 310 ft | 0 kts | 225° |
| 2026-04-27 06:21 | 40.90487 | 29.31537 | 309 ft | 5 kts | 235° |
| 2026-04-27 06:21 | 40.90463 | 29.31475 | 310 ft | 10 kts | 245° |
| 2026-04-27 06:22 | 40.90402 | 29.31444 | 311 ft | 12 kts | 162° |
| 2026-04-27 06:22 | 40.90321 | 29.31492 | 311 ft | 14 kts | 160° |
| 2026-04-27 06:22 | 40.90249 | 29.31427 | 310 ft | 15 kts | 242° |
| 2026-04-27 06:22 | 40.90199 | 29.31282 | 309 ft | 19 kts | 244° |
| 2026-04-27 06:23 | 40.90136 | 29.31115 | 310 ft | 20 kts | 244° |
| 2026-04-27 06:23 | 40.90070 | 29.30937 | 311 ft | 23 kts | 244° |
| 2026-04-27 06:23 | 40.90006 | 29.30762 | 310 ft | 17 kts | 244° |
| 2026-04-27 06:23 | 40.89949 | 29.30607 | 310 ft | 21 kts | 244° |
| 2026-04-27 06:24 | 40.89880 | 29.30418 | 310 ft | 25 kts | 245° |
| 2026-04-27 06:24 | 40.89810 | 29.30227 | 309 ft | 12 kts | 241° |
| 2026-04-27 06:24 | 40.89764 | 29.30111 | 308 ft | 17 kts | 242° |
| 2026-04-27 06:24 | 40.89708 | 29.29953 | 307 ft | 21 kts | 243° |
| 2026-04-27 06:25 | 40.89682 | 29.29881 | 306 ft | 3 kts | 245° |
| 2026-04-27 06:25 | 40.89667 | 29.29839 | 306 ft | 7 kts | 245° |
| 2026-04-27 06:25 | 40.89639 | 29.29760 | 306 ft | 12 kts | 245° |
| 2026-04-27 06:25 | 40.89612 | 29.29684 | 304 ft | 11 kts | 245° |
| 2026-04-27 06:26 | 40.89570 | 29.29561 | 303 ft | 17 kts | 245° |
| 2026-04-27 06:26 | 40.89511 | 29.29405 | 302 ft | 19 kts | 242° |
| 2026-04-27 06:26 | 40.89448 | 29.29270 | 302 ft | 15 kts | 218° |
| 2026-04-27 06:26 | 40.89368 | 29.29271 | 302 ft | 10 kts | 154° |
| 2026-04-27 06:27 | 40.89365 | 29.29274 | 302 ft | 0 kts | 154° |
| 2026-04-27 06:29 | 40.89353 | 29.29281 | 281 ft | 7 kts | 154° |
| 2026-04-27 06:29 | 40.89292 | 29.29339 | 303 ft | 13 kts | 113° |
| 2026-04-27 06:30 | 40.89292 | 29.29393 | 303 ft | 0 kts | 75° |
| 2026-04-27 06:30 | 40.89293 | 29.29394 | 304 ft | 1 kts | 64° |
| 2026-04-27 06:30 | 40.89351 | 29.29549 | 306 ft | 56 kts | 63° |
| 2026-04-27 06:30 | 40.89636 | 29.30325 | 314 ft | 127 kts | 64° |
| 2026-04-27 06:31 | 40.90029 | 29.31422 | 891 ft | 138 kts | 64° |
| 2026-04-27 06:31 | 40.90447 | 29.32567 | 1845 ft | 135 kts | 63° |
| 2026-04-27 06:31 | 40.90872 | 29.33704 | 2626 ft | 145 kts | 64° |
| 2026-04-27 06:31 | 40.91344 | 29.34971 | 3251 ft | 163 kts | 65° |
| 2026-04-27 06:32 | 40.91865 | 29.36382 | 3875 ft | 183 kts | 65° |
| 2026-04-27 06:32 | 40.92461 | 29.38007 | 4372 ft | 210 kts | 64° |
| 2026-04-27 06:32 | 40.93137 | 29.39846 | 5045 ft | 232 kts | 64° |